sensor_id;sensor_type;location;lat;lon;timestamp;P1;durP1;ratioP1;P2;durP2;ratioP2
22284;SDS011;11311;52.192;20.900;2023-10-08T00:01:21;20.40;;;9.50;;
22284;SDS011;11311;52.192;20.900;2023-10-08T00:03:50;20.08;;;10.00;;
22284;SDS011;11311;52.192;20.900;2023-10-08T00:06:25;16.17;;;8.98;;
22284;SDS011;11311;52.192;20.900;2023-10-08T00:08:55;22.45;;;9.38;;
22284;SDS011;11311;52.192;20.900;2023-10-08T00:11:27;20.35;;;9.77;;
22284;SDS011;11311;52.192;20.900;2023-10-08T00:13:57;23.20;;;10.55;;
22284;SDS011;11311;52.192;20.900;2023-10-08T00:16:29;18.75;;;9.32;;
22284;SDS011;11311;52.192;20.900;2023-10-08T00:19:01;20.10;;;9.95;;
22284;SDS011;11311;52.192;20.900;2023-10-08T00:21:36;18.67;;;8.70;;
22284;SDS011;11311;52.192;20.900;2023-10-08T00:24:05;18.80;;;9.63;;
22284;SDS011;11311;52.192;20.900;2023-10-08T00:26:36;25.20;;;9.45;;
22284;SDS011;11311;52.192;20.900;2023-10-08T00:29:08;21.25;;;9.73;;
22284;SDS011;11311;52.192;20.900;2023-10-08T00:31:45;19.05;;;9.55;;
22284;SDS011;11311;52.192;20.900;2023-10-08T00:34:15;18.13;;;9.70;;
22284;SDS011;11311;52.192;20.900;2023-10-08T00:36:48;21.45;;;9.98;;
22284;SDS011;11311;52.192;20.900;2023-10-08T00:39:17;20.63;;;10.40;;
22284;SDS011;11311;52.192;20.900;2023-10-08T00:41:50;17.42;;;9.80;;
22284;SDS011;11311;52.192;20.900;2023-10-08T00:44:26;21.67;;;8.80;;
22284;SDS011;11311;52.192;20.900;2023-10-08T00:46:59;15.50;;;9.00;;
22284;SDS011;11311;52.192;20.900;2023-10-08T00:49:32;15.30;;;9.23;;
22284;SDS011;11311;52.192;20.900;2023-10-08T00:52:15;20.90;;;9.30;;
22284;SDS011;11311;52.192;20.900;2023-10-08T00:55:04;16.90;;;9.13;;
22284;SDS011;11311;52.192;20.900;2023-10-08T00:57:36;14.65;;;7.88;;
22284;SDS011;11311;52.192;20.900;2023-10-08T01:00:10;17.73;;;9.13;;
22284;SDS011;11311;52.192;20.900;2023-10-08T01:02:51;14.25;;;8.52;;
22284;SDS011;11311;52.192;20.900;2023-10-08T01:05:28;22.52;;;8.98;;
22284;SDS011;11311;52.192;20.900;2023-10-08T01:08:10;17.67;;;8.65;;
22284;SDS011;11311;52.192;20.900;2023-10-08T01:10:41;14.45;;;8.63;;
22284;SDS011;11311;52.192;20.900;2023-10-08T01:13:14;20.73;;;8.68;;
22284;SDS011;11311;52.192;20.900;2023-10-08T01:15:46;16.88;;;8.52;;
22284;SDS011;11311;52.192;20.900;2023-10-08T01:18:19;17.05;;;8.40;;
22284;SDS011;11311;52.192;20.900;2023-10-08T01:20:58;15.55;;;8.55;;
22284;SDS011;11311;52.192;20.900;2023-10-08T01:23:37;19.55;;;8.93;;
22284;SDS011;11311;52.192;20.900;2023-10-08T01:26:07;11.63;;;8.30;;
22284;SDS011;11311;52.192;20.900;2023-10-08T01:28:39;27.60;;;8.52;;
22284;SDS011;11311;52.192;20.900;2023-10-08T01:31:11;21.98;;;9.75;;
22284;SDS011;11311;52.192;20.900;2023-10-08T01:33:40;16.35;;;9.75;;
22284;SDS011;11311;52.192;20.900;2023-10-08T01:36:17;29.70;;;9.52;;
22284;SDS011;11311;52.192;20.900;2023-10-08T01:38:47;25.33;;;9.98;;
22284;SDS011;11311;52.192;20.900;2023-10-08T01:41:16;21.83;;;8.93;;
22284;SDS011;11311;52.192;20.900;2023-10-08T01:43:49;18.90;;;8.85;;
22284;SDS011;11311;52.192;20.900;2023-10-08T01:46:20;15.82;;;9.27;;
22284;SDS011;11311;52.192;20.900;2023-10-08T01:48:49;18.75;;;9.23;;
22284;SDS011;11311;52.192;20.900;2023-10-08T01:51:23;20.83;;;9.13;;
22284;SDS011;11311;52.192;20.900;2023-10-08T01:54:05;17.08;;;7.93;;
22284;SDS011;11311;52.192;20.900;2023-10-08T01:56:39;18.00;;;8.55;;
22284;SDS011;11311;52.192;20.900;2023-10-08T01:59:10;18.75;;;9.98;;
22284;SDS011;11311;52.192;20.900;2023-10-08T02:01:41;17.85;;;9.57;;
22284;SDS011;11311;52.192;20.900;2023-10-08T02:04:10;14.80;;;9.10;;
22284;SDS011;11311;52.192;20.900;2023-10-08T02:06:40;19.17;;;9.13;;
22284;SDS011;11311;52.192;20.900;2023-10-08T02:09:11;18.73;;;8.33;;
22284;SDS011;11311;52.192;20.900;2023-10-08T02:11:42;19.48;;;8.18;;
22284;SDS011;11311;52.192;20.900;2023-10-08T02:14:11;21.63;;;9.98;;
22284;SDS011;11311;52.192;20.900;2023-10-08T02:16:42;20.63;;;8.82;;
22284;SDS011;11311;52.192;20.900;2023-10-08T02:19:11;22.80;;;9.65;;
22284;SDS011;11311;52.192;20.900;2023-10-08T02:21:41;16.63;;;7.82;;
22284;SDS011;11311;52.192;20.900;2023-10-08T02:24:14;19.60;;;9.13;;
22284;SDS011;11311;52.192;20.900;2023-10-08T02:26:44;19.38;;;10.02;;
22284;SDS011;11311;52.192;20.900;2023-10-08T02:29:13;18.67;;;9.20;;
22284;SDS011;11311;52.192;20.900;2023-10-08T02:31:42;20.05;;;9.90;;
22284;SDS011;11311;52.192;20.900;2023-10-08T02:34:13;23.30;;;9.52;;
22284;SDS011;11311;52.192;20.900;2023-10-08T02:36:42;15.57;;;8.98;;
22284;SDS011;11311;52.192;20.900;2023-10-08T02:39:11;20.25;;;10.10;;
22284;SDS011;11311;52.192;20.900;2023-10-08T02:41:49;16.42;;;8.85;;
22284;SDS011;11311;52.192;20.900;2023-10-08T02:44:18;21.55;;;9.38;;
22284;SDS011;11311;52.192;20.900;2023-10-08T02:46:47;21.55;;;10.73;;
22284;SDS011;11311;52.192;20.900;2023-10-08T02:49:19;23.65;;;11.48;;
22284;SDS011;11311;52.192;20.900;2023-10-08T02:51:50;23.90;;;9.52;;
22284;SDS011;11311;52.192;20.900;2023-10-08T02:56:52;17.05;;;9.80;;
22284;SDS011;11311;52.192;20.900;2023-10-08T02:59:28;22.25;;;9.60;;
22284;SDS011;11311;52.192;20.900;2023-10-08T03:02:07;18.35;;;8.85;;
22284;SDS011;11311;52.192;20.900;2023-10-08T03:04:41;23.05;;;9.07;;
22284;SDS011;11311;52.192;20.900;2023-10-08T03:07:13;22.30;;;9.23;;
22284;SDS011;11311;52.192;20.900;2023-10-08T03:09:51;13.75;;;9.07;;
22284;SDS011;11311;52.192;20.900;2023-10-08T03:12:33;24.35;;;9.18;;
22284;SDS011;11311;52.192;20.900;2023-10-08T03:15:02;24.65;;;10.40;;
22284;SDS011;11311;52.192;20.900;2023-10-08T03:17:43;20.88;;;9.35;;
22284;SDS011;11311;52.192;20.900;2023-10-08T03:20:19;17.98;;;9.88;;
22284;SDS011;11311;52.192;20.900;2023-10-08T03:23:09;19.42;;;9.30;;
22284;SDS011;11311;52.192;20.900;2023-10-08T03:25:54;22.40;;;9.85;;
22284;SDS011;11311;52.192;20.900;2023-10-08T03:28:29;19.23;;;10.57;;
22284;SDS011;11311;52.192;20.900;2023-10-08T03:31:02;23.58;;;9.85;;
22284;SDS011;11311;52.192;20.900;2023-10-08T03:33:33;23.23;;;9.25;;
22284;SDS011;11311;52.192;20.900;2023-10-08T03:36:05;17.80;;;9.20;;
22284;SDS011;11311;52.192;20.900;2023-10-08T03:38:41;18.23;;;9.65;;
22284;SDS011;11311;52.192;20.900;2023-10-08T03:41:17;22.42;;;9.93;;
22284;SDS011;11311;52.192;20.900;2023-10-08T03:46:25;24.58;;;9.82;;
22284;SDS011;11311;52.192;20.900;2023-10-08T03:48:54;20.23;;;8.20;;
22284;SDS011;11311;52.192;20.900;2023-10-08T03:51:24;17.20;;;7.70;;
22284;SDS011;11311;52.192;20.900;2023-10-08T03:53:56;16.63;;;7.45;;
22284;SDS011;11311;52.192;20.900;2023-10-08T03:56:42;15.38;;;6.40;;
22284;SDS011;11311;52.192;20.900;2023-10-08T03:59:17;14.25;;;6.15;;
22284;SDS011;11311;52.192;20.900;2023-10-08T04:01:58;13.88;;;5.80;;
22284;SDS011;11311;52.192;20.900;2023-10-08T04:04:37;16.70;;;5.40;;
22284;SDS011;11311;52.192;20.900;2023-10-08T04:07:19;13.85;;;5.38;;
22284;SDS011;11311;52.192;20.900;2023-10-08T04:10:07;9.73;;;4.72;;
22284;SDS011;11311;52.192;20.900;2023-10-08T04:12:56;8.55;;;3.97;;
22284;SDS011;11311;52.192;20.900;2023-10-08T04:15:26;8.05;;;3.80;;
22284;SDS011;11311;52.192;20.900;2023-10-08T04:17:54;6.93;;;3.33;;
22284;SDS011;11311;52.192;20.900;2023-10-08T04:20:25;8.25;;;3.08;;
22284;SDS011;11311;52.192;20.900;2023-10-08T04:25:41;5.85;;;2.15;;
22284;SDS011;11311;52.192;20.900;2023-10-08T04:28:11;4.10;;;2.25;;
22284;SDS011;11311;52.192;20.900;2023-10-08T04:30:43;6.68;;;2.05;;
22284;SDS011;11311;52.192;20.900;2023-10-08T04:33:14;3.90;;;2.65;;
22284;SDS011;11311;52.192;20.900;2023-10-08T04:35:44;3.67;;;2.00;;
22284;SDS011;11311;52.192;20.900;2023-10-08T04:38:19;5.13;;;2.15;;
22284;SDS011;11311;52.192;20.900;2023-10-08T04:40:50;6.65;;;2.90;;
22284;SDS011;11311;52.192;20.900;2023-10-08T04:45:54;7.68;;;1.80;;
22284;SDS011;11311;52.192;20.900;2023-10-08T04:48:24;1.95;;;1.60;;
22284;SDS011;11311;52.192;20.900;2023-10-08T04:50:57;3.33;;;1.30;;
22284;SDS011;11311;52.192;20.900;2023-10-08T04:53:30;1.92;;;1.40;;
22284;SDS011;11311;52.192;20.900;2023-10-08T04:56:05;4.07;;;1.75;;
22284;SDS011;11311;52.192;20.900;2023-10-08T04:58:40;3.67;;;1.58;;
22284;SDS011;11311;52.192;20.900;2023-10-08T05:01:15;2.13;;;1.90;;
22284;SDS011;11311;52.192;20.900;2023-10-08T05:03:55;2.40;;;1.48;;
22284;SDS011;11311;52.192;20.900;2023-10-08T05:06:52;4.55;;;1.70;;
22284;SDS011;11311;52.192;20.900;2023-10-08T05:09:58;1.60;;;1.48;;
22284;SDS011;11311;52.192;20.900;2023-10-08T05:12:45;2.17;;;1.33;;
22284;SDS011;11311;52.192;20.900;2023-10-08T05:15:28;3.42;;;1.60;;
22284;SDS011;11311;52.192;20.900;2023-10-08T05:18:04;2.10;;;1.40;;
22284;SDS011;11311;52.192;20.900;2023-10-08T05:20:50;2.92;;;1.67;;
22284;SDS011;11311;52.192;20.900;2023-10-08T05:23:30;3.20;;;1.60;;
22284;SDS011;11311;52.192;20.900;2023-10-08T05:26:39;2.40;;;1.33;;
22284;SDS011;11311;52.192;20.900;2023-10-08T05:29:12;3.50;;;1.83;;
22284;SDS011;11311;52.192;20.900;2023-10-08T05:31:58;3.22;;;1.75;;
22284;SDS011;11311;52.192;20.900;2023-10-08T05:34:41;2.15;;;1.48;;
22284;SDS011;11311;52.192;20.900;2023-10-08T05:37:39;2.78;;;1.85;;
22284;SDS011;11311;52.192;20.900;2023-10-08T05:40:09;1.67;;;1.52;;
22284;SDS011;11311;52.192;20.900;2023-10-08T05:43:10;7.03;;;1.60;;
22284;SDS011;11311;52.192;20.900;2023-10-08T05:45:50;4.53;;;1.65;;
22284;SDS011;11311;52.192;20.900;2023-10-08T05:48:41;1.83;;;1.50;;
22284;SDS011;11311;52.192;20.900;2023-10-08T05:51:12;3.45;;;1.45;;
22284;SDS011;11311;52.192;20.900;2023-10-08T05:54:01;5.90;;;1.40;;
22284;SDS011;11311;52.192;20.900;2023-10-08T05:56:49;3.05;;;1.55;;
22284;SDS011;11311;52.192;20.900;2023-10-08T05:59:35;2.83;;;1.75;;
22284;SDS011;11311;52.192;20.900;2023-10-08T06:02:20;4.18;;;1.65;;
22284;SDS011;11311;52.192;20.900;2023-10-08T06:04:57;3.50;;;1.98;;
22284;SDS011;11311;52.192;20.900;2023-10-08T06:07:48;5.05;;;2.03;;
22284;SDS011;11311;52.192;20.900;2023-10-08T06:10:25;2.92;;;2.20;;
22284;SDS011;11311;52.192;20.900;2023-10-08T06:13:11;4.88;;;1.70;;
22284;SDS011;11311;52.192;20.900;2023-10-08T06:15:45;5.80;;;1.65;;
22284;SDS011;11311;52.192;20.900;2023-10-08T06:18:16;2.30;;;1.45;;
22284;SDS011;11311;52.192;20.900;2023-10-08T06:20:46;1.52;;;1.25;;
22284;SDS011;11311;52.192;20.900;2023-10-08T06:23:16;3.40;;;1.58;;
22284;SDS011;11311;52.192;20.900;2023-10-08T06:25:46;3.00;;;2.15;;
22284;SDS011;11311;52.192;20.900;2023-10-08T06:28:22;3.25;;;1.50;;
22284;SDS011;11311;52.192;20.900;2023-10-08T06:33:24;1.45;;;1.20;;
22284;SDS011;11311;52.192;20.900;2023-10-08T06:35:58;1.92;;;1.23;;
22284;SDS011;11311;52.192;20.900;2023-10-08T06:38:31;1.88;;;1.08;;
22284;SDS011;11311;52.192;20.900;2023-10-08T06:41:01;3.67;;;1.45;;
22284;SDS011;11311;52.192;20.900;2023-10-08T06:43:36;3.85;;;1.10;;
22284;SDS011;11311;52.192;20.900;2023-10-08T06:46:06;4.93;;;1.75;;
22284;SDS011;11311;52.192;20.900;2023-10-08T06:48:35;1.63;;;1.02;;
22284;SDS011;11311;52.192;20.900;2023-10-08T06:51:06;4.60;;;1.10;;
22284;SDS011;11311;52.192;20.900;2023-10-08T06:53:40;1.75;;;1.05;;
22284;SDS011;11311;52.192;20.900;2023-10-08T06:56:09;1.20;;;1.10;;
22284;SDS011;11311;52.192;20.900;2023-10-08T06:58:39;4.15;;;1.20;;
22284;SDS011;11311;52.192;20.900;2023-10-08T07:01:14;1.48;;;1.38;;
22284;SDS011;11311;52.192;20.900;2023-10-08T07:03:48;3.88;;;1.10;;
22284;SDS011;11311;52.192;20.900;2023-10-08T07:06:18;3.95;;;1.35;;
22284;SDS011;11311;52.192;20.900;2023-10-08T07:08:59;2.60;;;1.48;;
22284;SDS011;11311;52.192;20.900;2023-10-08T07:11:32;1.48;;;1.02;;
22284;SDS011;11311;52.192;20.900;2023-10-08T07:14:02;2.47;;;1.52;;
22284;SDS011;11311;52.192;20.900;2023-10-08T07:16:33;1.20;;;0.80;;
22284;SDS011;11311;52.192;20.900;2023-10-08T07:21:43;2.92;;;1.02;;
22284;SDS011;11311;52.192;20.900;2023-10-08T07:24:13;2.17;;;1.38;;
22284;SDS011;11311;52.192;20.900;2023-10-08T07:26:44;4.18;;;1.35;;
22284;SDS011;11311;52.192;20.900;2023-10-08T07:29:15;3.67;;;1.17;;
22284;SDS011;11311;52.192;20.900;2023-10-08T07:31:46;3.38;;;1.10;;
22284;SDS011;11311;52.192;20.900;2023-10-08T07:34:19;1.38;;;0.80;;
22284;SDS011;11311;52.192;20.900;2023-10-08T07:36:54;2.60;;;1.00;;
22284;SDS011;11311;52.192;20.900;2023-10-08T07:39:23;2.97;;;1.70;;
22284;SDS011;11311;52.192;20.900;2023-10-08T07:42:02;2.08;;;0.80;;
22284;SDS011;11311;52.192;20.900;2023-10-08T07:44:33;2.55;;;0.95;;
22284;SDS011;11311;52.192;20.900;2023-10-08T07:47:08;2.17;;;1.10;;
22284;SDS011;11311;52.192;20.900;2023-10-08T07:49:39;1.38;;;1.17;;
22284;SDS011;11311;52.192;20.900;2023-10-08T07:52:10;1.58;;;1.00;;
22284;SDS011;11311;52.192;20.900;2023-10-08T07:54:44;2.10;;;0.95;;
22284;SDS011;11311;52.192;20.900;2023-10-08T07:57:12;3.63;;;1.27;;
22284;SDS011;11311;52.192;20.900;2023-10-08T07:59:46;2.63;;;1.10;;
22284;SDS011;11311;52.192;20.900;2023-10-08T08:02:17;2.55;;;0.82;;
22284;SDS011;11311;52.192;20.900;2023-10-08T08:04:50;2.92;;;1.23;;
22284;SDS011;11311;52.192;20.900;2023-10-08T08:07:20;1.88;;;1.23;;
22284;SDS011;11311;52.192;20.900;2023-10-08T08:09:52;6.25;;;1.42;;
22284;SDS011;11311;52.192;20.900;2023-10-08T08:12:26;2.55;;;1.15;;
22284;SDS011;11311;52.192;20.900;2023-10-08T08:15:00;2.83;;;0.98;;
22284;SDS011;11311;52.192;20.900;2023-10-08T08:17:43;3.40;;;1.00;;
22284;SDS011;11311;52.192;20.900;2023-10-08T08:20:15;2.15;;;1.90;;
22284;SDS011;11311;52.192;20.900;2023-10-08T08:22:49;5.40;;;0.95;;
22284;SDS011;11311;52.192;20.900;2023-10-08T08:25:22;4.45;;;1.20;;
22284;SDS011;11311;52.192;20.900;2023-10-08T08:28:02;1.80;;;0.88;;
22284;SDS011;11311;52.192;20.900;2023-10-08T08:30:33;1.20;;;1.10;;
22284;SDS011;11311;52.192;20.900;2023-10-08T08:33:05;2.47;;;0.90;;
22284;SDS011;11311;52.192;20.900;2023-10-08T08:35:38;3.20;;;1.10;;
22284;SDS011;11311;52.192;20.900;2023-10-08T08:38:07;2.60;;;1.23;;
22284;SDS011;11311;52.192;20.900;2023-10-08T08:40:36;3.57;;;1.47;;
22284;SDS011;11311;52.192;20.900;2023-10-08T08:43:07;5.75;;;1.40;;
22284;SDS011;11311;52.192;20.900;2023-10-08T08:45:37;2.25;;;0.90;;
22284;SDS011;11311;52.192;20.900;2023-10-08T08:48:09;2.55;;;1.63;;
22284;SDS011;11311;52.192;20.900;2023-10-08T08:50:39;1.20;;;0.90;;
22284;SDS011;11311;52.192;20.900;2023-10-08T08:53:09;1.80;;;0.93;;
22284;SDS011;11311;52.192;20.900;2023-10-08T08:55:38;5.33;;;1.10;;
22284;SDS011;11311;52.192;20.900;2023-10-08T08:58:07;2.47;;;1.33;;
22284;SDS011;11311;52.192;20.900;2023-10-08T09:00:38;1.90;;;1.00;;
22284;SDS011;11311;52.192;20.900;2023-10-08T09:03:09;1.50;;;1.10;;
22284;SDS011;11311;52.192;20.900;2023-10-08T09:05:40;2.53;;;1.00;;
22284;SDS011;11311;52.192;20.900;2023-10-08T09:08:17;1.92;;;1.13;;
22284;SDS011;11311;52.192;20.900;2023-10-08T09:10:46;1.40;;;1.13;;
22284;SDS011;11311;52.192;20.900;2023-10-08T09:13:19;2.83;;;1.10;;
22284;SDS011;11311;52.192;20.900;2023-10-08T09:15:50;3.30;;;1.00;;
22284;SDS011;11311;52.192;20.900;2023-10-08T09:18:24;1.92;;;1.10;;
22284;SDS011;11311;52.192;20.900;2023-10-08T09:20:55;1.35;;;0.95;;
22284;SDS011;11311;52.192;20.900;2023-10-08T09:23:24;2.43;;;1.10;;
22284;SDS011;11311;52.192;20.900;2023-10-08T09:25:53;2.85;;;1.55;;
22284;SDS011;11311;52.192;20.900;2023-10-08T09:28:30;2.47;;;0.85;;
22284;SDS011;11311;52.192;20.900;2023-10-08T09:31:02;1.23;;;1.02;;
22284;SDS011;11311;52.192;20.900;2023-10-08T09:33:34;1.23;;;0.85;;
22284;SDS011;11311;52.192;20.900;2023-10-08T09:36:03;1.08;;;0.90;;
22284;SDS011;11311;52.192;20.900;2023-10-08T09:38:34;1.67;;;1.00;;
22284;SDS011;11311;52.192;20.900;2023-10-08T09:41:04;1.30;;;1.20;;
22284;SDS011;11311;52.192;20.900;2023-10-08T09:43:35;4.72;;;1.70;;
22284;SDS011;11311;52.192;20.900;2023-10-08T09:46:08;1.20;;;1.10;;
22284;SDS011;11311;52.192;20.900;2023-10-08T09:48:43;3.17;;;1.63;;
22284;SDS011;11311;52.192;20.900;2023-10-08T09:51:16;1.95;;;1.33;;
22284;SDS011;11311;52.192;20.900;2023-10-08T09:53:49;2.55;;;1.20;;
22284;SDS011;11311;52.192;20.900;2023-10-08T09:56:21;1.33;;;1.05;;
22284;SDS011;11311;52.192;20.900;2023-10-08T09:58:51;1.17;;;1.02;;
22284;SDS011;11311;52.192;20.900;2023-10-08T10:01:20;1.65;;;1.55;;
22284;SDS011;11311;52.192;20.900;2023-10-08T10:03:52;1.95;;;1.05;;
22284;SDS011;11311;52.192;20.900;2023-10-08T10:06:22;1.52;;;1.00;;
22284;SDS011;11311;52.192;20.900;2023-10-08T10:08:51;1.83;;;1.23;;
22284;SDS011;11311;52.192;20.900;2023-10-08T10:11:20;1.53;;;0.90;;
22284;SDS011;11311;52.192;20.900;2023-10-08T10:13:50;1.42;;;1.00;;
22284;SDS011;11311;52.192;20.900;2023-10-08T10:16:21;1.60;;;1.10;;
22284;SDS011;11311;52.192;20.900;2023-10-08T10:18:54;2.85;;;1.00;;
22284;SDS011;11311;52.192;20.900;2023-10-08T10:21:25;1.63;;;1.00;;
22284;SDS011;11311;52.192;20.900;2023-10-08T10:23:56;1.75;;;1.00;;
22284;SDS011;11311;52.192;20.900;2023-10-08T10:26:26;1.88;;;1.02;;
22284;SDS011;11311;52.192;20.900;2023-10-08T10:31:47;2.35;;;0.80;;
22284;SDS011;11311;52.192;20.900;2023-10-08T10:34:22;1.13;;;1.02;;
22284;SDS011;11311;52.192;20.900;2023-10-08T10:36:55;2.28;;;1.23;;
22284;SDS011;11311;52.192;20.900;2023-10-08T10:39:26;1.08;;;0.75;;
22284;SDS011;11311;52.192;20.900;2023-10-08T10:41:58;0.90;;;0.73;;
22284;SDS011;11311;52.192;20.900;2023-10-08T10:44:30;2.95;;;1.15;;
22284;SDS011;11311;52.192;20.900;2023-10-08T10:49:48;1.42;;;1.00;;
22284;SDS011;11311;52.192;20.900;2023-10-08T10:52:21;1.98;;;0.95;;
22284;SDS011;11311;52.192;20.900;2023-10-08T10:55:12;1.35;;;0.90;;
22284;SDS011;11311;52.192;20.900;2023-10-08T10:57:59;2.25;;;1.02;;
22284;SDS011;11311;52.192;20.900;2023-10-08T11:00:34;1.40;;;1.20;;
22284;SDS011;11311;52.192;20.900;2023-10-08T11:03:24;1.75;;;0.88;;
22284;SDS011;11311;52.192;20.900;2023-10-08T11:05:55;1.50;;;1.10;;
22284;SDS011;11311;52.192;20.900;2023-10-08T11:08:27;1.45;;;1.02;;
22284;SDS011;11311;52.192;20.900;2023-10-08T11:11:04;2.70;;;0.90;;
22284;SDS011;11311;52.192;20.900;2023-10-08T11:13:36;1.30;;;0.80;;
22284;SDS011;11311;52.192;20.900;2023-10-08T11:16:07;2.13;;;1.38;;
22284;SDS011;11311;52.192;20.900;2023-10-08T11:18:42;8.02;;;1.33;;
22284;SDS011;11311;52.192;20.900;2023-10-08T11:21:15;1.90;;;0.90;;
22284;SDS011;11311;52.192;20.900;2023-10-08T11:23:50;1.80;;;0.80;;
22284;SDS011;11311;52.192;20.900;2023-10-08T11:26:26;2.00;;;1.10;;
22284;SDS011;11311;52.192;20.900;2023-10-08T11:31:41;2.47;;;0.90;;
22284;SDS011;11311;52.192;20.900;2023-10-08T11:34:11;4.30;;;1.33;;
22284;SDS011;11311;52.192;20.900;2023-10-08T11:36:42;2.03;;;1.13;;
22284;SDS011;11311;52.192;20.900;2023-10-08T11:39:21;2.67;;;1.25;;
22284;SDS011;11311;52.192;20.900;2023-10-08T11:41:56;4.25;;;1.23;;
22284;SDS011;11311;52.192;20.900;2023-10-08T11:44:31;1.80;;;1.17;;
22284;SDS011;11311;52.192;20.900;2023-10-08T11:47:04;2.35;;;1.00;;
22284;SDS011;11311;52.192;20.900;2023-10-08T11:49:39;3.58;;;1.30;;
22284;SDS011;11311;52.192;20.900;2023-10-08T11:52:16;5.80;;;1.67;;
22284;SDS011;11311;52.192;20.900;2023-10-08T11:54:49;1.48;;;0.68;;
22284;SDS011;11311;52.192;20.900;2023-10-08T11:57:20;2.22;;;0.80;;
22284;SDS011;11311;52.192;20.900;2023-10-08T11:59:50;4.07;;;0.87;;
22284;SDS011;11311;52.192;20.900;2023-10-08T12:02:22;2.42;;;1.50;;
22284;SDS011;11311;52.192;20.900;2023-10-08T12:04:51;3.65;;;1.05;;
22284;SDS011;11311;52.192;20.900;2023-10-08T12:07:26;1.23;;;1.05;;
22284;SDS011;11311;52.192;20.900;2023-10-08T12:09:55;2.30;;;1.10;;
22284;SDS011;11311;52.192;20.900;2023-10-08T12:12:24;5.07;;;0.90;;
22284;SDS011;11311;52.192;20.900;2023-10-08T12:14:55;3.95;;;1.15;;
22284;SDS011;11311;52.192;20.900;2023-10-08T12:17:24;1.08;;;0.90;;
22284;SDS011;11311;52.192;20.900;2023-10-08T12:20:05;1.65;;;1.23;;
22284;SDS011;11311;52.192;20.900;2023-10-08T12:22:52;4.25;;;1.02;;
22284;SDS011;11311;52.192;20.900;2023-10-08T12:25:21;1.70;;;1.23;;
22284;SDS011;11311;52.192;20.900;2023-10-08T12:27:50;1.45;;;0.80;;
22284;SDS011;11311;52.192;20.900;2023-10-08T12:30:19;1.13;;;1.00;;
22284;SDS011;11311;52.192;20.900;2023-10-08T12:32:58;5.28;;;1.00;;
22284;SDS011;11311;52.192;20.900;2023-10-08T12:35:28;1.17;;;1.05;;
22284;SDS011;11311;52.192;20.900;2023-10-08T12:37:59;4.82;;;0.82;;
22284;SDS011;11311;52.192;20.900;2023-10-08T12:40:27;3.33;;;0.88;;
22284;SDS011;11311;52.192;20.900;2023-10-08T12:43:09;3.20;;;1.90;;
22284;SDS011;11311;52.192;20.900;2023-10-08T12:45:38;2.40;;;1.38;;
22284;SDS011;11311;52.192;20.900;2023-10-08T12:48:07;1.23;;;1.13;;
22284;SDS011;11311;52.192;20.900;2023-10-08T12:50:41;8.60;;;1.25;;
22284;SDS011;11311;52.192;20.900;2023-10-08T12:53:14;2.95;;;1.20;;
22284;SDS011;11311;52.192;20.900;2023-10-08T12:55:43;1.88;;;0.90;;
22284;SDS011;11311;52.192;20.900;2023-10-08T12:58:13;1.23;;;0.95;;
22284;SDS011;11311;52.192;20.900;2023-10-08T13:00:43;1.73;;;1.13;;
22284;SDS011;11311;52.192;20.900;2023-10-08T13:03:17;3.45;;;1.10;;
22284;SDS011;11311;52.192;20.900;2023-10-08T13:05:51;5.88;;;1.08;;
22284;SDS011;11311;52.192;20.900;2023-10-08T13:08:23;3.63;;;1.30;;
22284;SDS011;11311;52.192;20.900;2023-10-08T13:10:54;1.75;;;1.55;;
22284;SDS011;11311;52.192;20.900;2023-10-08T13:13:28;2.03;;;1.10;;
22284;SDS011;11311;52.192;20.900;2023-10-08T13:15:57;1.08;;;0.95;;
22284;SDS011;11311;52.192;20.900;2023-10-08T13:18:30;1.88;;;0.90;;
22284;SDS011;11311;52.192;20.900;2023-10-08T13:21:00;4.70;;;1.40;;
22284;SDS011;11311;52.192;20.900;2023-10-08T13:23:31;3.47;;;0.95;;
22284;SDS011;11311;52.192;20.900;2023-10-08T13:26:03;5.47;;;1.15;;
22284;SDS011;11311;52.192;20.900;2023-10-08T13:28:34;10.38;;;1.65;;
22284;SDS011;11311;52.192;20.900;2023-10-08T13:31:03;2.85;;;1.35;;
22284;SDS011;11311;52.192;20.900;2023-10-08T13:33:37;2.78;;;1.30;;
22284;SDS011;11311;52.192;20.900;2023-10-08T13:36:08;4.50;;;1.10;;
22284;SDS011;11311;52.192;20.900;2023-10-08T13:38:46;1.85;;;1.15;;
22284;SDS011;11311;52.192;20.900;2023-10-08T13:41:15;2.15;;;0.80;;
22284;SDS011;11311;52.192;20.900;2023-10-08T13:43:45;3.38;;;1.10;;
22284;SDS011;11311;52.192;20.900;2023-10-08T13:46:19;4.05;;;1.50;;
22284;SDS011;11311;52.192;20.900;2023-10-08T13:48:50;3.05;;;1.20;;
22284;SDS011;11311;52.192;20.900;2023-10-08T13:51:19;4.53;;;1.52;;
22284;SDS011;11311;52.192;20.900;2023-10-08T13:53:54;1.27;;;1.15;;
22284;SDS011;11311;52.192;20.900;2023-10-08T13:56:36;2.13;;;1.15;;
22284;SDS011;11311;52.192;20.900;2023-10-08T13:59:06;2.40;;;1.00;;
22284;SDS011;11311;52.192;20.900;2023-10-08T14:01:40;1.48;;;1.00;;
22284;SDS011;11311;52.192;20.900;2023-10-08T14:04:14;1.73;;;1.15;;
22284;SDS011;11311;52.192;20.900;2023-10-08T14:06:47;3.15;;;1.00;;
22284;SDS011;11311;52.192;20.900;2023-10-08T14:09:21;2.53;;;1.13;;
22284;SDS011;11311;52.192;20.900;2023-10-08T14:11:59;5.43;;;1.40;;
22284;SDS011;11311;52.192;20.900;2023-10-08T14:14:28;4.60;;;0.88;;
22284;SDS011;11311;52.192;20.900;2023-10-08T14:16:58;1.00;;;0.90;;
22284;SDS011;11311;52.192;20.900;2023-10-08T14:19:30;1.92;;;1.10;;
22284;SDS011;11311;52.192;20.900;2023-10-08T14:22:07;2.60;;;1.80;;
22284;SDS011;11311;52.192;20.900;2023-10-08T14:24:43;2.92;;;0.98;;
22284;SDS011;11311;52.192;20.900;2023-10-08T14:27:14;3.28;;;1.50;;
22284;SDS011;11311;52.192;20.900;2023-10-08T14:29:44;2.45;;;1.17;;
22284;SDS011;11311;52.192;20.900;2023-10-08T14:32:17;4.00;;;1.20;;
22284;SDS011;11311;52.192;20.900;2023-10-08T14:34:47;3.42;;;1.00;;
22284;SDS011;11311;52.192;20.900;2023-10-08T14:37:48;7.72;;;1.25;;
22284;SDS011;11311;52.192;20.900;2023-10-08T14:40:35;0.95;;;0.80;;
22284;SDS011;11311;52.192;20.900;2023-10-08T14:43:22;6.13;;;2.28;;
22284;SDS011;11311;52.192;20.900;2023-10-08T14:45:51;7.43;;;1.52;;
22284;SDS011;11311;52.192;20.900;2023-10-08T14:48:23;7.22;;;1.35;;
22284;SDS011;11311;52.192;20.900;2023-10-08T14:50:52;1.83;;;1.27;;
22284;SDS011;11311;52.192;20.900;2023-10-08T14:53:21;2.70;;;1.00;;
22284;SDS011;11311;52.192;20.900;2023-10-08T14:58:21;7.78;;;1.27;;
22284;SDS011;11311;52.192;20.900;2023-10-08T15:00:53;6.85;;;1.60;;
22284;SDS011;11311;52.192;20.900;2023-10-08T15:03:22;4.68;;;1.67;;
22284;SDS011;11311;52.192;20.900;2023-10-08T15:05:54;2.05;;;1.30;;
22284;SDS011;11311;52.192;20.900;2023-10-08T15:08:24;5.75;;;1.50;;
22284;SDS011;11311;52.192;20.900;2023-10-08T15:10:55;2.03;;;1.38;;
22284;SDS011;11311;52.192;20.900;2023-10-08T15:13:24;4.47;;;1.23;;
22284;SDS011;11311;52.192;20.900;2023-10-08T15:15:54;8.40;;;1.30;;
22284;SDS011;11311;52.192;20.900;2023-10-08T15:18:23;2.20;;;1.02;;
22284;SDS011;11311;52.192;20.900;2023-10-08T15:21:00;1.60;;;1.23;;
22284;SDS011;11311;52.192;20.900;2023-10-08T15:23:31;3.67;;;1.35;;
22284;SDS011;11311;52.192;20.900;2023-10-08T15:26:01;5.28;;;1.42;;
22284;SDS011;11311;52.192;20.900;2023-10-08T15:28:30;2.10;;;1.30;;
22284;SDS011;11311;52.192;20.900;2023-10-08T15:31:00;5.72;;;1.35;;
22284;SDS011;11311;52.192;20.900;2023-10-08T15:33:31;1.23;;;1.00;;
22284;SDS011;11311;52.192;20.900;2023-10-08T15:36:00;5.30;;;1.73;;